sensor_id;sensor_type;location;lat;lon;timestamp;P1;durP1;ratioP1;P2;durP2;ratioP2
49826;SDS011;35715;51.570;6.036;2024-03-22T00:01:53;42.67;;;28.10;;
49826;SDS011;35715;51.570;6.036;2024-03-22T00:04:20;44.58;;;27.75;;
49826;SDS011;35715;51.570;6.036;2024-03-22T00:06:46;41.13;;;28.15;;
49826;SDS011;35715;51.570;6.036;2024-03-22T00:09:13;44.17;;;28.33;;
49826;SDS011;35715;51.570;6.036;2024-03-22T00:11:39;47.67;;;29.40;;
49826;SDS011;35715;51.570;6.036;2024-03-22T00:14:05;46.45;;;30.00;;
49826;SDS011;35715;51.570;6.036;2024-03-22T00:16:31;47.20;;;29.00;;
49826;SDS011;35715;51.570;6.036;2024-03-22T00:18:57;42.33;;;28.02;;
49826;SDS011;35715;51.570;6.036;2024-03-22T00:21:22;43.20;;;27.95;;
49826;SDS011;35715;51.570;6.036;2024-03-22T00:23:48;47.05;;;28.13;;
49826;SDS011;35715;51.570;6.036;2024-03-22T00:26:14;46.95;;;30.90;;
49826;SDS011;35715;51.570;6.036;2024-03-22T00:28:39;39.35;;;27.10;;
49826;SDS011;35715;51.570;6.036;2024-03-22T00:31:05;47.58;;;31.42;;
49826;SDS011;35715;51.570;6.036;2024-03-22T00:33:30;41.97;;;28.73;;
49826;SDS011;35715;51.570;6.036;2024-03-22T00:35:56;41.08;;;29.08;;
49826;SDS011;35715;51.570;6.036;2024-03-22T00:38:22;45.20;;;31.13;;
49826;SDS011;35715;51.570;6.036;2024-03-22T00:40:47;46.60;;;29.65;;
49826;SDS011;35715;51.570;6.036;2024-03-22T00:43:12;44.05;;;30.02;;
49826;SDS011;35715;51.570;6.036;2024-03-22T00:45:38;48.97;;;31.10;;
49826;SDS011;35715;51.570;6.036;2024-03-22T00:48:03;45.35;;;29.60;;
49826;SDS011;35715;51.570;6.036;2024-03-22T00:50:29;47.40;;;28.92;;
49826;SDS011;35715;51.570;6.036;2024-03-22T00:53:00;43.95;;;30.13;;
49826;SDS011;35715;51.570;6.036;2024-03-22T00:55:28;44.25;;;31.75;;
49826;SDS011;35715;51.570;6.036;2024-03-22T00:57:54;41.75;;;29.75;;
49826;SDS011;35715;51.570;6.036;2024-03-22T01:00:20;41.70;;;28.65;;
49826;SDS011;35715;51.570;6.036;2024-03-22T01:02:45;46.92;;;29.95;;
49826;SDS011;35715;51.570;6.036;2024-03-22T01:05:11;41.38;;;29.25;;
49826;SDS011;35715;51.570;6.036;2024-03-22T01:07:36;43.00;;;29.88;;
49826;SDS011;35715;51.570;6.036;2024-03-22T01:10:03;46.15;;;30.02;;
49826;SDS011;35715;51.570;6.036;2024-03-22T01:12:29;44.35;;;31.83;;
49826;SDS011;35715;51.570;6.036;2024-03-22T01:14:54;46.35;;;30.05;;
49826;SDS011;35715;51.570;6.036;2024-03-22T01:17:20;45.83;;;32.05;;
49826;SDS011;35715;51.570;6.036;2024-03-22T01:19:45;46.58;;;30.60;;
49826;SDS011;35715;51.570;6.036;2024-03-22T01:22:10;46.58;;;31.48;;
49826;SDS011;35715;51.570;6.036;2024-03-22T01:24:42;45.75;;;31.75;;
49826;SDS011;35715;51.570;6.036;2024-03-22T01:27:07;40.60;;;29.42;;
49826;SDS011;35715;51.570;6.036;2024-03-22T01:29:32;46.03;;;32.10;;
49826;SDS011;35715;51.570;6.036;2024-03-22T01:31:58;44.70;;;31.75;;
49826;SDS011;35715;51.570;6.036;2024-03-22T01:34:24;47.67;;;31.33;;
49826;SDS011;35715;51.570;6.036;2024-03-22T01:36:49;45.72;;;33.20;;
49826;SDS011;35715;51.570;6.036;2024-03-22T01:39:15;41.42;;;30.95;;
49826;SDS011;35715;51.570;6.036;2024-03-22T01:41:46;49.83;;;33.53;;
49826;SDS011;35715;51.570;6.036;2024-03-22T01:44:15;45.20;;;31.23;;
49826;SDS011;35715;51.570;6.036;2024-03-22T01:46:41;45.25;;;32.55;;
49826;SDS011;35715;51.570;6.036;2024-03-22T01:49:11;49.83;;;32.25;;
49826;SDS011;35715;51.570;6.036;2024-03-22T01:51:40;52.03;;;33.75;;
49826;SDS011;35715;51.570;6.036;2024-03-22T01:54:05;44.17;;;30.65;;
49826;SDS011;35715;51.570;6.036;2024-03-22T01:56:35;47.35;;;31.40;;
49826;SDS011;35715;51.570;6.036;2024-03-22T01:59:02;40.97;;;30.98;;
49826;SDS011;35715;51.570;6.036;2024-03-22T02:01:29;44.08;;;29.55;;
49826;SDS011;35715;51.570;6.036;2024-03-22T02:03:54;42.13;;;28.55;;
49826;SDS011;35715;51.570;6.036;2024-03-22T02:06:20;46.58;;;33.63;;
49826;SDS011;35715;51.570;6.036;2024-03-22T02:08:45;45.10;;;33.65;;
49826;SDS011;35715;51.570;6.036;2024-03-22T02:11:11;44.42;;;33.42;;
49826;SDS011;35715;51.570;6.036;2024-03-22T02:13:36;50.47;;;31.98;;
49826;SDS011;35715;51.570;6.036;2024-03-22T02:16:04;47.92;;;32.08;;
49826;SDS011;35715;51.570;6.036;2024-03-22T02:18:30;51.83;;;33.30;;
49826;SDS011;35715;51.570;6.036;2024-03-22T02:20:58;42.50;;;30.75;;
49826;SDS011;35715;51.570;6.036;2024-03-22T02:23:32;49.08;;;32.95;;
49826;SDS011;35715;51.570;6.036;2024-03-22T02:25:58;44.63;;;30.55;;
49826;SDS011;35715;51.570;6.036;2024-03-22T02:28:23;87.72;;;34.53;;
49826;SDS011;35715;51.570;6.036;2024-03-22T02:30:49;44.47;;;32.60;;
49826;SDS011;35715;51.570;6.036;2024-03-22T02:33:14;56.45;;;36.22;;
49826;SDS011;35715;51.570;6.036;2024-03-22T02:35:39;44.30;;;32.67;;
49826;SDS011;35715;51.570;6.036;2024-03-22T02:38:05;41.55;;;30.63;;
49826;SDS011;35715;51.570;6.036;2024-03-22T02:40:30;40.65;;;29.48;;
49826;SDS011;35715;51.570;6.036;2024-03-22T02:42:55;48.30;;;32.70;;
49826;SDS011;35715;51.570;6.036;2024-03-22T02:45:21;44.47;;;29.85;;
49826;SDS011;35715;51.570;6.036;2024-03-22T02:47:46;44.38;;;29.65;;
49826;SDS011;35715;51.570;6.036;2024-03-22T02:50:11;47.47;;;31.05;;
49826;SDS011;35715;51.570;6.036;2024-03-22T02:52:37;44.20;;;32.78;;
49826;SDS011;35715;51.570;6.036;2024-03-22T02:55:02;43.15;;;32.55;;
49826;SDS011;35715;51.570;6.036;2024-03-22T02:57:27;42.63;;;32.28;;
49826;SDS011;35715;51.570;6.036;2024-03-22T02:59:53;39.40;;;29.85;;
49826;SDS011;35715;51.570;6.036;2024-03-22T03:02:18;49.42;;;32.17;;
49826;SDS011;35715;51.570;6.036;2024-03-22T03:04:44;44.75;;;32.60;;
49826;SDS011;35715;51.570;6.036;2024-03-22T03:07:09;43.72;;;34.15;;
49826;SDS011;35715;51.570;6.036;2024-03-22T03:09:35;46.42;;;31.38;;
49826;SDS011;35715;51.570;6.036;2024-03-22T03:12:00;44.55;;;31.85;;
49826;SDS011;35715;51.570;6.036;2024-03-22T03:14:26;46.60;;;31.75;;
49826;SDS011;35715;51.570;6.036;2024-03-22T03:16:51;48.28;;;31.63;;
49826;SDS011;35715;51.570;6.036;2024-03-22T03:19:16;47.65;;;31.23;;
49826;SDS011;35715;51.570;6.036;2024-03-22T03:21:42;42.83;;;30.73;;
49826;SDS011;35715;51.570;6.036;2024-03-22T03:24:07;50.70;;;32.08;;
49826;SDS011;35715;51.570;6.036;2024-03-22T03:26:34;46.17;;;31.58;;
49826;SDS011;35715;51.570;6.036;2024-03-22T03:28:59;41.25;;;30.27;;
49826;SDS011;35715;51.570;6.036;2024-03-22T03:31:25;37.45;;;27.73;;
49826;SDS011;35715;51.570;6.036;2024-03-22T03:33:50;40.78;;;30.30;;
49826;SDS011;35715;51.570;6.036;2024-03-22T03:36:15;42.83;;;30.10;;
49826;SDS011;35715;51.570;6.036;2024-03-22T03:38:41;38.70;;;29.63;;
49826;SDS011;35715;51.570;6.036;2024-03-22T03:41:06;40.97;;;28.20;;
49826;SDS011;35715;51.570;6.036;2024-03-22T03:43:32;46.38;;;31.90;;
49826;SDS011;35715;51.570;6.036;2024-03-22T03:45:57;48.25;;;31.90;;
49826;SDS011;35715;51.570;6.036;2024-03-22T03:48:25;42.42;;;30.30;;
49826;SDS011;35715;51.570;6.036;2024-03-22T03:50:53;47.33;;;32.08;;
49826;SDS011;35715;51.570;6.036;2024-03-22T03:53:20;44.53;;;31.23;;
49826;SDS011;35715;51.570;6.036;2024-03-22T03:55:48;38.67;;;29.50;;
49826;SDS011;35715;51.570;6.036;2024-03-22T03:58:14;49.08;;;30.25;;
49826;SDS011;35715;51.570;6.036;2024-03-22T04:00:39;42.67;;;30.88;;
49826;SDS011;35715;51.570;6.036;2024-03-22T04:03:04;37.85;;;28.10;;
49826;SDS011;35715;51.570;6.036;2024-03-22T04:05:30;43.58;;;31.98;;
49826;SDS011;35715;51.570;6.036;2024-03-22T04:07:55;46.90;;;29.55;;
49826;SDS011;35715;51.570;6.036;2024-03-22T04:10:20;42.97;;;30.02;;
49826;SDS011;35715;51.570;6.036;2024-03-22T04:12:47;40.97;;;28.20;;
49826;SDS011;35715;51.570;6.036;2024-03-22T04:15:12;40.35;;;30.92;;
49826;SDS011;35715;51.570;6.036;2024-03-22T04:17:38;39.60;;;26.80;;
49826;SDS011;35715;51.570;6.036;2024-03-22T04:20:03;35.97;;;28.15;;
49826;SDS011;35715;51.570;6.036;2024-03-22T04:22:29;43.90;;;29.88;;
49826;SDS011;35715;51.570;6.036;2024-03-22T04:24:54;37.92;;;26.63;;
49826;SDS011;35715;51.570;6.036;2024-03-22T04:27:20;39.45;;;29.42;;
49826;SDS011;35715;51.570;6.036;2024-03-22T04:29:48;33.92;;;26.35;;
49826;SDS011;35715;51.570;6.036;2024-03-22T04:32:16;40.83;;;27.02;;
49826;SDS011;35715;51.570;6.036;2024-03-22T04:34:43;42.58;;;26.83;;
49826;SDS011;35715;51.570;6.036;2024-03-22T04:37:08;38.25;;;25.42;;
49826;SDS011;35715;51.570;6.036;2024-03-22T04:39:34;37.95;;;26.90;;
49826;SDS011;35715;51.570;6.036;2024-03-22T04:42:00;45.60;;;27.77;;
49826;SDS011;35715;51.570;6.036;2024-03-22T04:44:25;36.20;;;27.85;;
49826;SDS011;35715;51.570;6.036;2024-03-22T04:46:50;40.85;;;27.88;;
49826;SDS011;35715;51.570;6.036;2024-03-22T04:49:18;40.97;;;28.63;;
49826;SDS011;35715;51.570;6.036;2024-03-22T04:51:44;36.45;;;25.85;;
49826;SDS011;35715;51.570;6.036;2024-03-22T04:54:09;41.75;;;28.38;;
49826;SDS011;35715;51.570;6.036;2024-03-22T04:56:34;30.42;;;24.27;;
49826;SDS011;35715;51.570;6.036;2024-03-22T04:58:59;34.58;;;24.17;;
49826;SDS011;35715;51.570;6.036;2024-03-22T05:01:25;37.00;;;25.75;;
49826;SDS011;35715;51.570;6.036;2024-03-22T05:03:50;34.35;;;24.55;;
49826;SDS011;35715;51.570;6.036;2024-03-22T05:06:15;35.03;;;25.27;;
49826;SDS011;35715;51.570;6.036;2024-03-22T05:08:41;32.88;;;24.45;;
49826;SDS011;35715;51.570;6.036;2024-03-22T05:11:06;32.03;;;23.02;;
49826;SDS011;35715;51.570;6.036;2024-03-22T05:13:32;32.90;;;23.80;;
49826;SDS011;35715;51.570;6.036;2024-03-22T05:15:58;30.10;;;22.88;;
49826;SDS011;35715;51.570;6.036;2024-03-22T05:18:23;31.58;;;23.38;;
49826;SDS011;35715;51.570;6.036;2024-03-22T05:20:49;28.05;;;22.05;;
49826;SDS011;35715;51.570;6.036;2024-03-22T05:23:14;34.85;;;21.50;;
49826;SDS011;35715;51.570;6.036;2024-03-22T05:25:41;31.98;;;23.27;;
49826;SDS011;35715;51.570;6.036;2024-03-22T05:28:07;28.75;;;21.70;;
49826;SDS011;35715;51.570;6.036;2024-03-22T05:30:33;28.23;;;22.90;;
49826;SDS011;35715;51.570;6.036;2024-03-22T05:32:59;26.95;;;21.17;;
49826;SDS011;35715;51.570;6.036;2024-03-22T05:35:24;28.15;;;21.25;;
49826;SDS011;35715;51.570;6.036;2024-03-22T05:37:49;29.20;;;22.33;;
49826;SDS011;35715;51.570;6.036;2024-03-22T05:40:15;31.05;;;22.02;;
49826;SDS011;35715;51.570;6.036;2024-03-22T05:42:41;29.88;;;22.38;;
49826;SDS011;35715;51.570;6.036;2024-03-22T05:45:07;33.53;;;23.08;;
49826;SDS011;35715;51.570;6.036;2024-03-22T05:47:32;26.52;;;20.73;;
49826;SDS011;35715;51.570;6.036;2024-03-22T05:49:58;32.60;;;23.48;;
49826;SDS011;35715;51.570;6.036;2024-03-22T05:52:24;32.65;;;23.42;;
49826;SDS011;35715;51.570;6.036;2024-03-22T05:54:50;26.85;;;19.38;;
49826;SDS011;35715;51.570;6.036;2024-03-22T05:57:16;31.02;;;22.23;;
49826;SDS011;35715;51.570;6.036;2024-03-22T05:59:41;31.38;;;23.33;;
49826;SDS011;35715;51.570;6.036;2024-03-22T06:02:07;27.33;;;20.83;;
49826;SDS011;35715;51.570;6.036;2024-03-22T06:04:33;29.02;;;20.98;;
49826;SDS011;35715;51.570;6.036;2024-03-22T06:06:58;31.75;;;22.20;;
49826;SDS011;35715;51.570;6.036;2024-03-22T06:09:25;28.52;;;20.23;;
49826;SDS011;35715;51.570;6.036;2024-03-22T06:12:10;31.65;;;21.17;;
49826;SDS011;35715;51.570;6.036;2024-03-22T06:14:36;26.83;;;21.92;;
49826;SDS011;35715;51.570;6.036;2024-03-22T06:17:04;31.70;;;21.25;;
49826;SDS011;35715;51.570;6.036;2024-03-22T06:19:30;25.58;;;19.10;;
49826;SDS011;35715;51.570;6.036;2024-03-22T06:21:55;26.23;;;20.60;;
49826;SDS011;35715;51.570;6.036;2024-03-22T06:24:21;26.00;;;19.85;;
49826;SDS011;35715;51.570;6.036;2024-03-22T06:26:46;24.70;;;19.60;;
49826;SDS011;35715;51.570;6.036;2024-03-22T06:29:11;25.75;;;20.70;;
49826;SDS011;35715;51.570;6.036;2024-03-22T06:31:37;21.48;;;18.02;;
49826;SDS011;35715;51.570;6.036;2024-03-22T06:34:03;26.08;;;17.83;;
49826;SDS011;35715;51.570;6.036;2024-03-22T06:36:30;26.65;;;21.60;;
49826;SDS011;35715;51.570;6.036;2024-03-22T06:38:57;23.92;;;18.63;;
49826;SDS011;35715;51.570;6.036;2024-03-22T06:41:22;28.65;;;21.42;;
49826;SDS011;35715;51.570;6.036;2024-03-22T06:43:47;24.98;;;20.85;;
49826;SDS011;35715;51.570;6.036;2024-03-22T06:46:13;30.92;;;21.63;;
49826;SDS011;35715;51.570;6.036;2024-03-22T06:48:38;24.67;;;20.58;;
49826;SDS011;35715;51.570;6.036;2024-03-22T06:51:03;24.40;;;20.48;;
49826;SDS011;35715;51.570;6.036;2024-03-22T06:53:29;24.30;;;20.13;;
49826;SDS011;35715;51.570;6.036;2024-03-22T06:55:54;24.20;;;18.95;;
49826;SDS011;35715;51.570;6.036;2024-03-22T06:58:19;24.00;;;19.85;;
49826;SDS011;35715;51.570;6.036;2024-03-22T07:00:47;23.70;;;18.88;;
49826;SDS011;35715;51.570;6.036;2024-03-22T07:03:13;22.73;;;19.77;;
49826;SDS011;35715;51.570;6.036;2024-03-22T07:05:39;21.77;;;17.92;;
49826;SDS011;35715;51.570;6.036;2024-03-22T07:08:04;22.73;;;17.17;;
49826;SDS011;35715;51.570;6.036;2024-03-22T07:10:30;19.02;;;17.02;;
49826;SDS011;35715;51.570;6.036;2024-03-22T07:12:56;21.95;;;17.40;;
49826;SDS011;35715;51.570;6.036;2024-03-22T07:15:24;22.00;;;18.25;;
49826;SDS011;35715;51.570;6.036;2024-03-22T07:17:53;24.98;;;19.33;;
49826;SDS011;35715;51.570;6.036;2024-03-22T07:20:18;22.15;;;17.73;;
49826;SDS011;35715;51.570;6.036;2024-03-22T07:22:43;23.38;;;17.70;;
49826;SDS011;35715;51.570;6.036;2024-03-22T07:25:09;21.42;;;17.75;;
49826;SDS011;35715;51.570;6.036;2024-03-22T07:27:35;17.77;;;15.20;;
49826;SDS011;35715;51.570;6.036;2024-03-22T07:30:03;21.70;;;16.70;;
49826;SDS011;35715;51.570;6.036;2024-03-22T07:32:30;17.15;;;14.73;;
49826;SDS011;35715;51.570;6.036;2024-03-22T07:34:55;18.83;;;15.63;;
49826;SDS011;35715;51.570;6.036;2024-03-22T07:37:21;23.02;;;16.95;;
49826;SDS011;35715;51.570;6.036;2024-03-22T07:39:46;21.83;;;18.05;;
49826;SDS011;35715;51.570;6.036;2024-03-22T07:42:12;23.17;;;17.88;;
49826;SDS011;35715;51.570;6.036;2024-03-22T07:44:37;27.60;;;16.20;;
49826;SDS011;35715;51.570;6.036;2024-03-22T07:47:02;24.92;;;16.52;;
49826;SDS011;35715;51.570;6.036;2024-03-22T07:49:28;19.63;;;15.63;;
49826;SDS011;35715;51.570;6.036;2024-03-22T07:51:53;18.70;;;16.27;;
49826;SDS011;35715;51.570;6.036;2024-03-22T07:54:18;21.05;;;16.77;;
49826;SDS011;35715;51.570;6.036;2024-03-22T07:56:45;21.95;;;16.80;;
49826;SDS011;35715;51.570;6.036;2024-03-22T07:59:11;22.02;;;16.40;;
49826;SDS011;35715;51.570;6.036;2024-03-22T08:01:37;18.13;;;15.82;;
49826;SDS011;35715;51.570;6.036;2024-03-22T08:04:02;21.05;;;15.40;;
49826;SDS011;35715;51.570;6.036;2024-03-22T08:06:28;21.10;;;17.33;;
49826;SDS011;35715;51.570;6.036;2024-03-22T08:08:53;21.00;;;17.60;;
49826;SDS011;35715;51.570;6.036;2024-03-22T08:11:18;22.30;;;17.50;;
49826;SDS011;35715;51.570;6.036;2024-03-22T08:13:44;17.05;;;14.93;;
49826;SDS011;35715;51.570;6.036;2024-03-22T08:16:09;16.95;;;14.43;;
49826;SDS011;35715;51.570;6.036;2024-03-22T08:18:34;18.38;;;15.13;;
49826;SDS011;35715;51.570;6.036;2024-03-22T08:21:00;18.45;;;16.00;;
49826;SDS011;35715;51.570;6.036;2024-03-22T08:23:25;21.25;;;14.80;;
49826;SDS011;35715;51.570;6.036;2024-03-22T08:25:50;17.65;;;15.73;;
49826;SDS011;35715;51.570;6.036;2024-03-22T08:28:16;16.83;;;14.50;;
49826;SDS011;35715;51.570;6.036;2024-03-22T08:30:42;16.23;;;14.00;;
49826;SDS011;35715;51.570;6.036;2024-03-22T08:33:08;18.83;;;15.85;;
49826;SDS011;35715;51.570;6.036;2024-03-22T08:35:37;18.17;;;15.18;;
49826;SDS011;35715;51.570;6.036;2024-03-22T08:38:03;15.40;;;13.75;;
49826;SDS011;35715;51.570;6.036;2024-03-22T08:40:29;17.98;;;14.07;;
49826;SDS011;35715;51.570;6.036;2024-03-22T08:42:54;17.40;;;13.18;;
49826;SDS011;35715;51.570;6.036;2024-03-22T08:45:22;16.63;;;14.18;;
49826;SDS011;35715;51.570;6.036;2024-03-22T08:47:47;15.27;;;13.75;;
49826;SDS011;35715;51.570;6.036;2024-03-22T08:50:13;15.40;;;13.80;;
49826;SDS011;35715;51.570;6.036;2024-03-22T08:52:38;20.75;;;15.07;;
49826;SDS011;35715;51.570;6.036;2024-03-22T08:55:04;18.33;;;14.80;;
49826;SDS011;35715;51.570;6.036;2024-03-22T08:57:32;14.52;;;12.98;;
49826;SDS011;35715;51.570;6.036;2024-03-22T08:59:57;18.88;;;12.40;;
49826;SDS011;35715;51.570;6.036;2024-03-22T09:02:22;18.13;;;13.00;;
49826;SDS011;35715;51.570;6.036;2024-03-22T09:04:48;16.98;;;13.70;;
49826;SDS011;35715;51.570;6.036;2024-03-22T09:07:13;14.98;;;13.32;;
49826;SDS011;35715;51.570;6.036;2024-03-22T09:09:38;19.38;;;13.45;;
49826;SDS011;35715;51.570;6.036;2024-03-22T09:12:04;15.40;;;13.15;;
49826;SDS011;35715;51.570;6.036;2024-03-22T09:14:29;15.93;;;14.32;;
49826;SDS011;35715;51.570;6.036;2024-03-22T09:16:55;14.95;;;11.75;;
49826;SDS011;35715;51.570;6.036;2024-03-22T09:19:20;15.55;;;12.57;;
49826;SDS011;35715;51.570;6.036;2024-03-22T09:21:46;14.93;;;13.48;;
49826;SDS011;35715;51.570;6.036;2024-03-22T09:24:12;15.65;;;14.05;;
49826;SDS011;35715;51.570;6.036;2024-03-22T09:26:37;14.45;;;12.98;;
49826;SDS011;35715;51.570;6.036;2024-03-22T09:29:02;15.43;;;13.70;;
49826;SDS011;35715;51.570;6.036;2024-03-22T09:31:28;14.65;;;13.15;;
49826;SDS011;35715;51.570;6.036;2024-03-22T09:33:55;14.80;;;12.88;;
49826;SDS011;35715;51.570;6.036;2024-03-22T09:36:21;14.70;;;12.90;;
49826;SDS011;35715;51.570;6.036;2024-03-22T09:38:46;14.23;;;12.75;;
49826;SDS011;35715;51.570;6.036;2024-03-22T09:41:12;14.02;;;12.40;;
49826;SDS011;35715;51.570;6.036;2024-03-22T09:43:39;16.40;;;14.70;;
49826;SDS011;35715;51.570;6.036;2024-03-22T09:46:05;15.18;;;13.43;;
49826;SDS011;35715;51.570;6.036;2024-03-22T09:48:34;14.20;;;12.68;;
49826;SDS011;35715;51.570;6.036;2024-03-22T09:51:00;14.88;;;13.15;;
49826;SDS011;35715;51.570;6.036;2024-03-22T09:53:26;14.35;;;12.65;;
49826;SDS011;35715;51.570;6.036;2024-03-22T09:55:53;15.43;;;12.75;;
49826;SDS011;35715;51.570;6.036;2024-03-22T09:58:22;16.90;;;14.45;;
49826;SDS011;35715;51.570;6.036;2024-03-22T10:00:48;15.40;;;13.82;;
49826;SDS011;35715;51.570;6.036;2024-03-22T10:03:13;16.75;;;13.07;;
49826;SDS011;35715;51.570;6.036;2024-03-22T10:05:39;14.50;;;13.07;;
49826;SDS011;35715;51.570;6.036;2024-03-22T10:08:04;16.02;;;13.52;;
49826;SDS011;35715;51.570;6.036;2024-03-22T10:10:31;17.38;;;12.02;;
49826;SDS011;35715;51.570;6.036;2024-03-22T10:12:56;13.40;;;11.80;;
49826;SDS011;35715;51.570;6.036;2024-03-22T10:15:23;13.57;;;11.30;;
49826;SDS011;35715;51.570;6.036;2024-03-22T10:17:48;13.10;;;11.38;;
49826;SDS011;35715;51.570;6.036;2024-03-22T10:20:14;12.80;;;11.55;;
49826;SDS011;35715;51.570;6.036;2024-03-22T10:22:42;13.07;;;10.98;;
49826;SDS011;35715;51.570;6.036;2024-03-22T10:25:09;13.80;;;12.18;;
49826;SDS011;35715;51.570;6.036;2024-03-22T10:27:37;20.55;;;11.30;;
49826;SDS011;35715;51.570;6.036;2024-03-22T10:30:04;12.80;;;11.60;;
49826;SDS011;35715;51.570;6.036;2024-03-22T10:32:36;12.43;;;11.15;;
49826;SDS011;35715;51.570;6.036;2024-03-22T10:35:02;15.82;;;13.13;;
49826;SDS011;35715;51.570;6.036;2024-03-22T10:37:31;13.90;;;12.48;;
49826;SDS011;35715;51.570;6.036;2024-03-22T10:39:57;15.57;;;12.55;;
49826;SDS011;35715;51.570;6.036;2024-03-22T10:42:25;13.65;;;12.13;;
49826;SDS011;35715;51.570;6.036;2024-03-22T10:44:51;12.45;;;11.25;;
49826;SDS011;35715;51.570;6.036;2024-03-22T10:47:18;14.88;;;13.27;;
49826;SDS011;35715;51.570;6.036;2024-03-22T10:49:46;13.95;;;10.32;;
49826;SDS011;35715;51.570;6.036;2024-03-22T10:52:13;16.08;;;13.05;;
49826;SDS011;35715;51.570;6.036;2024-03-22T10:54:40;13.80;;;12.32;;
49826;SDS011;35715;51.570;6.036;2024-03-22T10:57:11;11.70;;;10.50;;
49826;SDS011;35715;51.570;6.036;2024-03-22T10:59:38;15.52;;;12.00;;
49826;SDS011;35715;51.570;6.036;2024-03-22T11:02:11;15.95;;;12.07;;
49826;SDS011;35715;51.570;6.036;2024-03-22T11:04:37;12.15;;;10.80;;
49826;SDS011;35715;51.570;6.036;2024-03-22T11:07:02;13.10;;;11.73;;
49826;SDS011;35715;51.570;6.036;2024-03-22T11:09:28;13.20;;;11.57;;
49826;SDS011;35715;51.570;6.036;2024-03-22T11:11:55;16.95;;;12.70;;
49826;SDS011;35715;51.570;6.036;2024-03-22T11:14:22;11.75;;;10.73;;
49826;SDS011;35715;51.570;6.036;2024-03-22T11:16:49;13.82;;;11.23;;
49826;SDS011;35715;51.570;6.036;2024-03-22T11:19:15;16.40;;;12.18;;
49826;SDS011;35715;51.570;6.036;2024-03-22T11:21:40;13.63;;;11.98;;
49826;SDS011;35715;51.570;6.036;2024-03-22T11:24:06;13.32;;;11.93;;
49826;SDS011;35715;51.570;6.036;2024-03-22T11:26:32;13.85;;;12.60;;
49826;SDS011;35715;51.570;6.036;2024-03-22T11:29:00;15.07;;;13.45;;
49826;SDS011;35715;51.570;6.036;2024-03-22T11:31:26;39.05;;;13.23;;
49826;SDS011;35715;51.570;6.036;2024-03-22T11:33:55;14.32;;;12.98;;
49826;SDS011;35715;51.570;6.036;2024-03-22T11:36:22;16.35;;;14.40;;
49826;SDS011;35715;51.570;6.036;2024-03-22T11:38:48;13.90;;;12.60;;
49826;SDS011;35715;51.570;6.036;2024-03-22T11:41:17;22.02;;;14.15;;
49826;SDS011;35715;51.570;6.036;2024-03-22T11:43:45;15.23;;;12.95;;
49826;SDS011;35715;51.570;6.036;2024-03-22T11:46:12;15.15;;;13.50;;
49826;SDS011;35715;51.570;6.036;2024-03-22T11:48:40;14.68;;;13.18;;
49826;SDS011;35715;51.570;6.036;2024-03-22T11:51:06;19.25;;;15.40;;
49826;SDS011;35715;51.570;6.036;2024-03-22T11:53:35;16.77;;;14.43;;
49826;SDS011;35715;51.570;6.036;2024-03-22T11:56:01;18.67;;;14.98;;
49826;SDS011;35715;51.570;6.036;2024-03-22T11:58:28;24.70;;;16.10;;
49826;SDS011;35715;51.570;6.036;2024-03-22T12:00:55;17.48;;;15.57;;
49826;SDS011;35715;51.570;6.036;2024-03-22T12:03:21;14.88;;;13.27;;
49826;SDS011;35715;51.570;6.036;2024-03-22T12:05:46;16.63;;;14.73;;
49826;SDS011;35715;51.570;6.036;2024-03-22T12:08:13;17.45;;;13.98;;
49826;SDS011;35715;51.570;6.036;2024-03-22T12:10:39;21.92;;;16.48;;
49826;SDS011;35715;51.570;6.036;2024-03-22T12:13:04;21.80;;;16.65;;
49826;SDS011;35715;51.570;6.036;2024-03-22T12:15:30;17.15;;;15.40;;
49826;SDS011;35715;51.570;6.036;2024-03-22T12:17:55;16.23;;;14.63;;
49826;SDS011;35715;51.570;6.036;2024-03-22T12:20:20;19.25;;;15.65;;
49826;SDS011;35715;51.570;6.036;2024-03-22T12:22:46;16.77;;;15.20;;
49826;SDS011;35715;51.570;6.036;2024-03-22T12:25:12;14.40;;;12.85;;
49826;SDS011;35715;51.570;6.036;2024-03-22T12:27:37;15.75;;;14.15;;
49826;SDS011;35715;51.570;6.036;2024-03-22T12:30:02;14.73;;;13.32;;
49826;SDS011;35715;51.570;6.036;2024-03-22T12:32:28;20.63;;;14.23;;
49826;SDS011;35715;51.570;6.036;2024-03-22T12:34:54;15.85;;;14.10;;
49826;SDS011;35715;51.570;6.036;2024-03-22T12:37:19;17.98;;;14.80;;
49826;SDS011;35715;51.570;6.036;2024-03-22T12:39:45;16.77;;;13.98;;
49826;SDS011;35715;51.570;6.036;2024-03-22T12:42:13;14.00;;;12.30;;
49826;SDS011;35715;51.570;6.036;2024-03-22T12:44:42;12.88;;;11.52;;
49826;SDS011;35715;51.570;6.036;2024-03-22T12:47:07;15.30;;;12.63;;
49826;SDS011;35715;51.570;6.036;2024-03-22T12:49:32;17.42;;;15.02;;
49826;SDS011;35715;51.570;6.036;2024-03-22T12:51:57;16.20;;;14.48;;
49826;SDS011;35715;51.570;6.036;2024-03-22T12:54:26;13.57;;;12.27;;
49826;SDS011;35715;51.570;6.036;2024-03-22T12:56:54;21.33;;;14.38;;
49826;SDS011;35715;51.570;6.036;2024-03-22T12:59:19;22.23;;;16.58;;
49826;SDS011;35715;51.570;6.036;2024-03-22T13:01:45;13.52;;;12.23;;
49826;SDS011;35715;51.570;6.036;2024-03-22T13:04:10;14.02;;;12.57;;
49826;SDS011;35715;51.570;6.036;2024-03-22T13:06:36;12.15;;;10.95;;
49826;SDS011;35715;51.570;6.036;2024-03-22T13:09:02;12.73;;;11.43;;
49826;SDS011;35715;51.570;6.036;2024-03-22T13:11:29;15.95;;;10.23;;
49826;SDS011;35715;51.570;6.036;2024-03-22T13:13:57;13.90;;;11.60;;
49826;SDS011;35715;51.570;6.036;2024-03-22T13:16:22;13.63;;;11.93;;
49826;SDS011;35715;51.570;6.036;2024-03-22T13:18:48;10.82;;;9.82;;
49826;SDS011;35715;51.570;6.036;2024-03-22T13:21:13;12.50;;;10.73;;
49826;SDS011;35715;51.570;6.036;2024-03-22T13:23:38;11.45;;;9.52;;
49826;SDS011;35715;51.570;6.036;2024-03-22T13:26:04;18.77;;;9.98;;
49826;SDS011;35715;51.570;6.036;2024-03-22T13:28:30;8.00;;;7.30;;
49826;SDS011;35715;51.570;6.036;2024-03-22T13:30:59;8.43;;;7.38;;
49826;SDS011;35715;51.570;6.036;2024-03-22T13:33:28;8.43;;;7.63;;
49826;SDS011;35715;51.570;6.036;2024-03-22T13:35:58;8.10;;;7.22;;
49826;SDS011;35715;51.570;6.036;2024-03-22T13:38:23;16.05;;;7.22;;
49826;SDS011;35715;51.570;6.036;2024-03-22T13:40:58;7.72;;;6.97;;
49826;SDS011;35715;51.570;6.036;2024-03-22T13:43:25;8.55;;;7.65;;
49826;SDS011;35715;51.570;6.036;2024-03-22T13:45:52;7.68;;;6.70;;
49826;SDS011;35715;51.570;6.036;2024-03-22T13:48:19;8.20;;;7.40;;
49826;SDS011;35715;51.570;6.036;2024-03-22T13:50:48;14.20;;;7.57;;
49826;SDS011;35715;51.570;6.036;2024-03-22T13:53:14;7.00;;;6.00;;
49826;SDS011;35715;51.570;6.036;2024-03-22T13:55:40;7.75;;;6.47;;
49826;SDS011;35715;51.570;6.036;2024-03-22T13:58:07;7.72;;;6.82;;
49826;SDS011;35715;51.570;6.036;2024-03-22T14:00:32;9.95;;;9.05;;
49826;SDS011;35715;51.570;6.036;2024-03-22T14:02:58;10.63;;;8.02;;
49826;SDS011;35715;51.570;6.036;2024-03-22T14:05:24;10.63;;;8.75;;
49826;SDS011;35715;51.570;6.036;2024-03-22T14:07:50;9.80;;;8.57;;
49826;SDS011;35715;51.570;6.036;2024-03-22T14:10:16;9.30;;;7.18;;
49826;SDS011;35715;51.570;6.036;2024-03-22T14:12:42;14.40;;;8.40;;
49826;SDS011;35715;51.570;6.036;2024-03-22T14:15:08;7.85;;;6.97;;
49826;SDS011;35715;51.570;6.036;2024-03-22T14:17:33;9.50;;;8.60;;